Time;durP1;ratioP1;P1;durP2;ratioP2;P2;SDS_P1;SDS_P2;PMS_P1;PMS_P2;Temp;Humidity;BMP_temperature;BMP_pressure;BME280_temperature;BME280_humidity;BME280_pressure;Samples;Min_cycle;Max_cycle;Signal;HPM_P1;HPM_P2
2022/07/15 00:00:54;;;;;;;8.13;2.40;;;;;;;17.87;49.22;99866.63;1701482;83;25521;-71
2022/07/15 00:03:20;;;;;;;5.55;1.90;;;;;;;17.84;49.26;99870.66;1706390;83;25465;-70
2022/07/15 00:05:46;;;;;;;6.58;1.85;;;;;;;17.80;49.42;99871.97;1701489;83;26175;-70
2022/07/15 00:08:12;;;;;;;5.10;1.90;;;;;;;17.79;49.38;99879.17;1706458;83;25473;-71
2022/07/15 00:10:38;;;;;;;8.28;2.50;;;;;;;17.77;49.64;99886.96;1706414;83;27546;-71
2022/07/15 00:13:04;;;;;;;3.95;1.82;;;;;;;17.73;49.64;99887.69;1706272;83;25565;-70
2022/07/15 00:15:32;;;;;;;3.98;1.45;;;;;;;17.73;49.76;99895.89;1698301;83;25461;-71
2022/07/15 00:18:03;;;;;;;8.48;2.22;;;;;;;17.74;49.74;99892.02;1706412;82;25518;-69
2022/07/15 00:20:33;;;;;;;2.55;1.52;;;;;;;17.75;49.78;99899.63;1711132;82;25637;-69
2022/07/15 00:22:57;;;;;;;4.12;1.80;;;;;;;17.75;49.76;99899.63;1706083;83;27525;-69
2022/07/15 00:25:24;;;;;;;6.97;2.15;;;;;;;17.76;49.96;99901.23;1701535;83;25432;-69
2022/07/15 00:27:56;;;;;;;4.25;1.75;;;;;;;17.77;49.95;99902.01;1706440;82;25583;-69
2022/07/15 00:30:24;;;;;;;4.58;1.70;;;;;;;17.76;49.96;99903.15;1706429;83;25470;-69
2022/07/15 00:32:51;;;;;;;5.97;1.87;;;;;;;17.74;50.03;99906.25;1693017;83;25412;-69
2022/07/15 00:35:17;;;;;;;3.55;1.77;;;;;;;17.76;50.02;99908.63;1708258;83;27476;-69
2022/07/15 00:37:43;;;;;;;6.62;2.20;;;;;;;17.75;50.02;99907.84;1709552;83;25768;-69
2022/07/15 00:40:10;;;;;;;5.65;1.95;;;;;;;17.78;49.99;99915.32;1711226;83;25563;-69
2022/07/15 00:42:45;;;;;;;3.10;1.95;;;;;;;17.77;50.04;99912.36;1703935;83;25521;-70
2022/07/15 00:45:19;;;;;;;5.12;2.65;;;;;;;17.78;50.11;99915.91;1698345;83;25483;-70
2022/07/15 00:47:48;;;;;;;5.58;1.80;;;;;;;17.77;50.13;99919.20;1706614;83;27522;-71
2022/07/15 00:50:17;;;;;;;4.55;1.77;;;;;;;17.76;50.24;99913.53;1694754;83;25697;-70
2022/07/15 00:53:12;;;;;;;4.95;1.65;;;;;;;17.72;50.23;99905.28;1706542;83;25391;-70
2022/07/15 00:55:43;;;;;;;6.25;1.92;;;;;;;17.72;50.24;99906.64;1711367;83;26004;-70
2022/07/15 00:58:15;;;;;;;8.33;1.82;;;;;;;17.72;50.27;99915.41;1701935;83;25434;-70
2022/07/15 01:00:43;;;;;;;5.50;1.70;;;;;;;17.72;50.24;99909.94;1706016;83;27471;-70
2022/07/15 01:03:10;;;;;;;4.80;1.93;;;;;;;17.70;50.51;99908.93;1707414;82;25505;-70
2022/07/15 01:05:37;;;;;;;5.03;1.77;;;;;;;17.69;50.42;99910.66;1707285;83;25508;-70
2022/07/15 01:08:04;;;;;;;4.90;2.10;;;;;;;17.68;50.51;99910.47;1707201;83;26064;-70
2022/07/15 01:10:30;;;;;;;3.02;1.60;;;;;;;17.66;50.48;99908.69;1707186;83;25513;-70
2022/07/15 01:12:57;;;;;;;7.05;2.08;;;;;;;17.64;50.55;99910.97;1711929;83;27475;-70
2022/07/15 01:15:23;;;;;;;3.95;2.00;;;;;;;17.62;50.83;99913.29;1711593;83;25622;-71
2022/07/15 01:17:49;;;;;;;4.28;1.87;;;;;;;17.59;50.74;99904.44;1711820;83;25324;-72
2022/07/15 01:20:16;;;;;;;5.60;1.90;;;;;;;17.59;50.97;99907.17;1704668;82;26289;-71
2022/07/15 01:22:42;;;;;;;5.87;1.50;;;;;;;17.59;50.85;99905.81;1692080;83;25416;-69
2022/07/15 01:25:09;;;;;;;3.27;1.60;;;;;;;17.59;50.93;99906.62;1696151;83;28049;-69
2022/07/15 01:27:35;;;;;;;4.22;2.00;;;;;;;17.59;51.05;99908.55;1693805;83;25602;-69
2022/07/15 01:30:02;;;;;;;3.40;1.40;;;;;;;17.57;51.11;99905.39;1693733;83;25175;-69
2022/07/15 01:32:29;;;;;;;3.27;1.50;;;;;;;17.55;51.21;99903.83;1696138;83;26008;-69
2022/07/15 01:34:55;;;;;;;4.12;1.98;;;;;;;17.52;51.31;99900.45;1693835;83;25555;-70
2022/07/15 01:37:22;;;;;;;5.87;1.87;;;;;;;17.50;51.18;99898.67;1692539;83;27467;-70
2022/07/15 01:39:48;;;;;;;4.20;2.00;;;;;;;17.50;51.46;99900.59;1701739;83;25801;-70
2022/07/15 01:42:14;;;;;;;3.85;1.70;;;;;;;17.45;51.31;99896.24;1695605;83;25123;-70
2022/07/15 01:44:41;;;;;;;5.22;1.70;;;;;;;17.44;51.60;99899.34;1696196;83;25569;-70
2022/07/15 01:47:07;;;;;;;2.85;1.95;;;;;;;17.42;51.52;99895.59;1696274;83;25436;-71
2022/07/15 01:49:33;;;;;;;4.83;2.08;;;;;;;17.42;51.53;99894.79;1692000;83;27285;-71
2022/07/15 01:52:02;;;;;;;4.83;1.62;;;;;;;17.40;51.53;99895.73;1694796;83;25755;-72
2022/07/15 01:54:30;;;;;;;4.62;2.12;;;;;;;17.37;51.58;99898.64;1693054;83;25592;-71
2022/07/15 01:56:57;;;;;;;7.33;2.02;;;;;;;17.34;51.88;99900.73;1695173;83;25572;-71
2022/07/15 01:59:24;;;;;;;4.47;1.82;;;;;;;17.27;52.00;99912.32;1695404;83;25504;-71
2022/07/15 02:01:53;;;;;;;9.20;2.85;;;;;;;17.20;52.13;99906.73;1692963;83;27512;-71
2022/07/15 02:04:21;;;;;;;7.47;2.50;;;;;;;17.14;52.00;99908.17;1694492;82;25415;-71
2022/07/15 02:06:48;;;;;;;3.40;1.75;;;;;;;17.09;52.17;99908.47;1696367;83;25509;-71
2022/07/15 02:09:14;;;;;;;7.37;2.35;;;;;;;17.00;52.23;99907.34;1695547;83;25518;-71
2022/07/15 02:11:41;;;;;;;3.40;1.80;;;;;;;16.95;52.72;99913.09;1694864;83;25516;-71
2022/07/15 02:14:07;;;;;;;4.78;2.30;;;;;;;16.86;52.85;99911.17;1692934;82;27436;-71
2022/07/15 02:16:34;;;;;;;6.65;2.15;;;;;;;16.76;52.82;99912.51;1695658;83;25492;-71
2022/07/15 02:19:01;;;;;;;7.50;2.30;;;;;;;16.69;53.23;99909.64;1694825;83;25598;-71
2022/07/15 02:21:28;;;;;;;3.25;2.12;;;;;;;16.59;53.18;99904.17;1692920;83;25560;-71
2022/07/15 02:23:57;;;;;;;5.92;1.70;;;;;;;16.53;53.31;99907.77;1695581;83;25524;-71
2022/07/15 02:26:24;;;;;;;4.03;1.98;;;;;;;16.46;53.46;99911.69;1691247;83;27588;-71
2022/07/15 02:28:50;;;;;;;5.87;2.10;;;;;;;16.39;53.84;99910.19;1692722;83;25486;-71
2022/07/15 02:31:16;;;;;;;6.47;2.50;;;;;;;16.29;54.10;99914.84;1695380;83;25499;-71
2022/07/15 02:33:42;;;;;;;3.25;1.87;;;;;;;16.21;54.38;99915.27;1695282;83;25498;-71
2022/07/15 02:36:09;;;;;;;13.43;2.37;;;;;;;16.12;54.36;99909.20;1692770;83;25422;-71
2022/07/15 02:38:36;;;;;;;9.13;2.05;;;;;;;16.05;54.36;99920.16;1695118;83;28226;-71
2022/07/15 02:41:02;;;;;;;3.75;1.80;;;;;;;16.01;54.40;99919.88;1695011;83;25578;-71
2022/07/15 02:43:29;;;;;;;9.68;2.40;;;;;;;15.96;54.97;99919.57;1692767;83;25580;-71
2022/07/15 02:45:55;;;;;;;6.62;2.10;;;;;;;15.89;55.08;99922.72;1695149;83;25587;-71
2022/07/15 02:48:22;;;;;;;5.95;1.90;;;;;;;15.83;55.46;99925.72;1691174;83;25498;-71
2022/07/15 02:50:49;;;;;;;3.50;1.90;;;;;;;15.77;55.49;99927.70;1692908;83;27460;-71
2022/07/15 02:53:16;;;;;;;5.60;2.40;;;;;;;15.72;55.41;99927.35;1695014;83;25611;-71
2022/07/15 02:55:42;;;;;;;4.90;2.00;;;;;;;15.69;55.92;99929.41;1695025;83;25465;-71
2022/07/15 02:58:08;;;;;;;6.90;2.15;;;;;;;15.64;56.00;99930.45;1692931;83;25519;-71
2022/07/15 03:00:34;;;;;;;5.00;1.98;;;;;;;15.60;56.27;99930.17;1695670;83;25505;-71
2022/07/15 03:03:00;;;;;;;4.58;2.22;;;;;;;15.55;56.24;99933.95;1694664;83;28182;-71
2022/07/15 03:05:26;;;;;;;6.92;2.30;;;;;;;15.54;56.51;99939.74;1693087;82;25420;-71
2022/07/15 03:07:52;;;;;;;7.05;3.17;;;;;;;15.52;56.70;99931.91;1688270;83;25459;-71
2022/07/15 03:10:18;;;;;;;6.80;2.60;;;;;;;15.50;57.64;99932.84;1691860;83;25481;-71
2022/07/15 03:12:44;;;;;;;7.33;2.40;;;;;;;15.52;57.35;99941.45;1695684;83;25479;-71
2022/07/15 03:15:12;;;;;;;6.33;2.60;;;;;;;15.52;57.45;99944.18;1692876;83;28282;-71
2022/07/15 03:17:39;;;;;;;4.08;2.10;;;;;;;15.52;57.60;99947.48;1694638;82;25454;-70
2022/07/15 03:20:08;;;;;;;4.87;2.40;;;;;;;15.49;57.48;99947.05;1695795;82;25496;-70
2022/07/15 03:22:34;;;;;;;5.65;2.10;;;;;;;15.49;57.90;99945.69;1697421;83;25452;-70
2022/07/15 03:25:00;;;;;;;6.00;2.22;;;;;;;15.47;57.84;99950.67;1711285;83;25424;-70
2022/07/15 03:27:26;;;;;;;5.95;2.15;;;;;;;15.45;58.07;99955.69;1706484;83;28243;-70
2022/07/15 03:29:52;;;;;;;6.30;2.30;;;;;;;15.45;58.03;99958.41;1695545;83;25424;-70
2022/07/15 03:32:20;;;;;;;4.95;2.22;;;;;;;15.46;58.27;99956.47;1705047;83;25461;-70
2022/07/15 03:34:48;;;;;;;5.28;2.10;;;;;;;15.48;58.15;99959.66;1665874;85;25516;-70
2022/07/15 03:37:15;;;;;;;13.13;2.92;;;;;;;15.48;58.30;99957.72;1710987;83;25452;-70
2022/07/15 03:39:41;;;;;;;9.30;3.17;;;;;;;15.50;58.24;99958.16;1711854;83;28243;-70
2022/07/15 03:42:07;;;;;;;8.95;2.70;;;;;;;15.49;58.47;99962.05;1713185;82;25464;-70
2022/07/15 03:44:33;;;;;;;5.83;2.58;;;;;;;15.52;58.55;99969.29;1716629;81;25451;-70
2022/07/15 03:46:59;;;;;;;4.22;2.00;;;;;;;15.53;58.63;99971.67;1712379;82;26065;-70
2022/07/15 03:49:25;;;;;;;8.13;2.22;;;;;;;15.52;58.89;99969.29;1711909;82;25502;-70
2022/07/15 03:51:52;;;;;;;4.00;1.75;;;;;;;15.49;58.79;99977.03;1705815;83;27447;-70
2022/07/15 03:54:18;;;;;;;6.50;2.30;;;;;;;15.48;58.94;99974.07;1698771;84;25413;-70
2022/07/15 03:56:47;;;;;;;6.22;2.22;;;;;;;15.49;59.00;99974.86;1690886;84;25489;-70
2022/07/15 03:59:11;;;;;;;6.40;1.95;;;;;;;15.49;59.19;99975.67;1710560;83;25527;-70
2022/07/15 04:01:37;;;;;;;5.42;2.10;;;;;;;15.50;59.42;99969.06;1714890;82;25497;-70
2022/07/15 04:04:03;;;;;;;8.10;2.17;;;;;;;15.55;59.44;99976.77;1707515;82;27549;-70
2022/07/15 04:06:29;;;;;;;6.22;2.05;;;;;;;15.57;59.55;99972.54;1709406;83;25875;-70
2022/07/15 04:08:55;;;;;;;8.08;1.98;;;;;;;15.61;59.64;99971.27;1676092;84;25507;-70
2022/07/15 04:11:22;;;;;;;7.00;2.00;;;;;;;15.73;59.76;99985.39;1713706;82;25535;-70
2022/07/15 04:13:48;;;;;;;4.78;1.77;;;;;;;15.65;59.96;99975.67;1708827;83;25469;-70
2022/07/15 04:16:14;;;;;;;6.05;1.90;;;;;;;15.69;59.77;99976.55;1706125;83;27525;-71
2022/07/15 04:18:41;;;;;;;5.53;2.00;;;;;;;15.72;59.56;99972.92;1709831;83;25470;-71
2022/07/15 04:21:07;;;;;;;5.10;1.85;;;;;;;15.75;59.58;99966.22;1710289;83;25517;-71
2022/07/15 04:23:34;;;;;;;3.87;1.65;;;;;;;15.80;59.65;99967.87;1676255;83;25590;-71
2022/07/15 04:26:00;;;;;;;6.42;2.10;;;;;;;15.86;59.59;99972.71;1682259;83;25474;-71
2022/07/15 04:28:26;;;;;;;5.28;1.90;;;;;;;15.91;59.53;99971.66;1679673;85;27475;-71
2022/07/15 04:30:53;;;;;;;2.47;1.80;;;;;;;15.98;59.60;99977.86;1681090;85;26463;-71
2022/07/15 04:33:23;;;;;;;7.87;1.70;;;;;;;16.05;59.47;99979.39;1681156;85;25207;-71
2022/07/15 04:35:49;;;;;;;4.90;1.85;;;;;;;16.11;59.28;99981.30;1681104;85;26104;-71
2022/07/15 04:38:15;;;;;;;4.97;1.72;;;;;;;16.16;59.23;99983.76;1676389;85;25117;-71
2022/07/15 04:40:42;;;;;;;5.80;1.70;;;;;;;16.23;59.32;99982.55;1679648;85;28139;-71
2022/07/15 04:43:08;;;;;;;4.83;1.95;;;;;;;16.30;59.15;99988.17;1679583;85;25691;-71
2022/07/15 04:45:35;;;;;;;3.75;1.20;;;;;;;16.38;59.16;99990.50;1679756;85;25486;-71
2022/07/15 04:48:03;;;;;;;4.60;1.50;;;;;;;16.44;58.51;99990.42;1679622;85;26090;-71
2022/07/15 04:50:51;;;;;;;5.30;1.60;;;;;;;16.49;58.24;99992.87;1691759;82;25482;-71
2022/07/15 04:53:16;;;;;;;6.72;1.70;;;;;;;16.55;58.20;99985.19;1703828;83;27466;-71
2022/07/15 04:55:42;;;;;;;3.30;1.40;;;;;;;16.62;57.95;99979.91;1713896;83;25435;-71
2022/07/15 04:58:08;;;;;;;6.37;1.57;;;;;;;16.72;57.87;99984.80;1680624;83;25471;-71
2022/07/15 05:00:34;;;;;;;4.50;1.40;;;;;;;16.82;57.89;99991.63;1679595;85;25564;-71
2022/07/15 05:03:04;;;;;;;4.25;1.70;;;;;;;16.90;57.60;99990.66;1679646;85;25447;-71
2022/07/15 05:05:29;;;;;;;5.45;1.85;;;;;;;16.99;57.37;99993.17;1691955;83;28107;-71
2022/07/15 05:07:54;;;;;;;4.05;1.30;;;;;;;17.09;57.17;99995.33;1695825;83;25756;-71
2022/07/15 05:10:20;;;;;;;12.18;1.65;;;;;;;17.16;56.53;100005.05;1694751;83;25427;-71
2022/07/15 05:12:47;;;;;;;4.85;1.10;;;;;;;17.25;56.53;100002.09;1693390;83;25530;-72
2022/07/15 05:15:14;;;;;;;5.10;1.15;;;;;;;17.34;56.20;100007.33;1688566;83;25565;-71
2022/07/15 05:17:41;;;;;;;4.80;1.20;;;;;;;17.42;55.89;100008.23;1694764;83;28293;-71
2022/07/15 05:20:08;;;;;;;2.75;1.00;;;;;;;17.53;55.65;100014.70;1693320;83;25466;-71
2022/07/15 05:22:34;;;;;;;4.72;1.55;;;;;;;17.63;55.37;100016.06;1689863;83;25901;-71
2022/07/15 05:25:00;;;;;;;3.35;2.10;;;;;;;17.72;55.05;100019.34;1686896;84;26243;-71
2022/07/15 05:27:26;;;;;;;9.45;4.85;;;;;;;17.82;54.97;100026.16;1685785;83;25514;-71
2022/07/15 05:29:52;;;;;;;4.65;1.70;;;;;;;17.94;54.77;100023.86;1688525;84;27541;-71
2022/07/15 05:32:18;;;;;;;4.15;1.47;;;;;;;18.03;54.57;100027.13;1686478;84;25476;-71
2022/07/15 05:34:44;;;;;;;3.30;1.12;;;;;;;18.11;54.36;100032.93;1686248;84;25454;-71
2022/07/15 05:37:11;;;;;;;3.75;1.27;;;;;;;18.18;53.63;100033.63;1688462;84;25534;-72
2022/07/15 05:39:53;;;;;;;3.75;1.22;;;;;;;18.22;53.41;100043.48;1686432;84;25496;-72
2022/07/15 05:42:06;;;;;;;2.12;1.40;;;;;;;18.26;52.95;100047.64;1691254;82;28279;-72
2022/07/15 05:44:32;;;;;;;3.90;1.32;;;;;;;18.32;52.89;100046.74;1685370;84;25499;-72
2022/07/15 05:46:58;;;;;;;1.82;1.10;;;;;;;18.35;52.75;100050.13;1687487;84;25460;-72
2022/07/15 05:49:25;;;;;;;1.40;0.72;;;;;;;18.41;52.69;100053.55;1687751;84;26019;-69
2022/07/15 05:51:51;;;;;;;1.47;0.90;;;;;;;18.50;52.25;100054.66;1685455;83;25439;-71
2022/07/15 05:54:17;;;;;;;4.87;1.10;;;;;;;18.63;52.05;100062.88;1689766;83;27504;-72
2022/07/15 05:56:43;;;;;;;3.10;0.93;;;;;;;18.74;51.47;100063.61;1689674;84;25403;-72
2022/07/15 05:59:09;;;;;;;2.15;1.10;;;;;;;18.88;51.49;100060.30;1685469;84;25437;-72
2022/07/15 06:01:35;;;;;;;6.28;1.10;;;;;;;19.05;51.84;100059.73;1688102;84;25588;-71
2022/07/15 06:04:01;;;;;;;2.17;1.00;;;;;;;19.21;51.63;100067.20;1687038;84;25486;-71
2022/07/15 06:06:27;;;;;;;3.70;1.10;;;;;;;19.37;51.46;100061.50;1685698;84;27465;-71
2022/07/15 06:08:53;;;;;;;4.35;2.30;;;;;;;19.53;51.01;100072.84;1685570;84;25519;-71
2022/07/15 06:11:19;;;;;;;2.58;1.02;;;;;;;19.62;50.31;100074.72;1687223;84;25500;-72
2022/07/15 06:13:47;;;;;;;5.12;1.55;;;;;;;19.71;50.04;100071.67;1687849;84;25668;-72
2022/07/15 06:16:13;;;;;;;3.02;1.17;;;;;;;19.77;49.60;100072.36;1685702;84;25539;-72
2022/07/15 06:18:39;;;;;;;3.65;1.15;;;;;;;19.86;49.40;100074.80;1689674;84;27578;-72
2022/07/15 06:21:05;;;;;;;10.50;2.90;;;;;;;19.95;48.95;100068.99;1686085;84;25535;-72
2022/07/15 06:23:31;;;;;;;2.90;1.20;;;;;;;20.07;49.49;100072.82;1700784;83;25570;-72
2022/07/15 06:25:57;;;;;;;2.30;1.40;;;;;;;20.27;49.04;100071.23;1692035;83;26169;-72
2022/07/15 06:28:23;;;;;;;3.20;1.00;;;;;;;20.45;48.87;100069.98;1701693;83;25500;-72
2022/07/15 06:30:49;;;;;;;3.17;0.90;;;;;;;20.61;48.63;100079.33;1706193;83;27584;-72
2022/07/15 06:33:15;;;;;;;3.27;1.27;;;;;;;20.75;48.20;100080.03;1701551;83;25493;-71
2022/07/15 06:35:41;;;;;;;6.35;0.95;;;;;;;20.96;48.12;100077.42;1701327;83;25443;-71
2022/07/15 06:38:08;;;;;;;3.90;1.10;;;;;;;21.19;47.86;100088.72;1705405;83;26134;-71
2022/07/15 06:40:35;;;;;;;4.00;1.45;;;;;;;21.39;47.33;100087.82;1700455;83;25506;-71
2022/07/15 06:43:01;;;;;;;5.55;1.60;;;;;;;21.48;46.96;100092.98;1709661;83;28207;-67
2022/07/15 06:45:27;;;;;;;3.95;0.90;;;;;;;21.53;46.80;100092.02;1677654;84;25434;-69
2022/07/15 06:47:53;;;;;;;1.47;0.72;;;;;;;21.69;46.66;100102.69;1708439;83;25510;-70
2022/07/15 06:50:22;;;;;;;5.47;1.27;;;;;;;21.82;46.20;100100.34;1713161;82;26341;-71
2022/07/15 06:52:47;;;;;;;3.67;1.00;;;;;;;21.98;45.97;100095.84;1709037;82;25458;-69
2022/07/15 06:55:13;;;;;;;4.92;1.02;;;;;;;22.13;45.81;100096.64;1713172;82;28204;-70
2022/07/15 06:57:40;;;;;;;4.67;0.90;;;;;;;22.28;45.60;100106.52;1715352;82;25410;-70
2022/07/15 07:00:09;;;;;;;4.10;1.07;;;;;;;22.36;44.69;100103.97;1711582;82;25504;-69
2022/07/15 07:02:36;;;;;;;2.50;1.02;;;;;;;22.43;44.31;100107.91;1717435;82;25478;-68
2022/07/15 07:05:02;;;;;;;6.62;1.20;;;;;;;22.47;44.45;100112.81;1731620;82;25442;-72
2022/07/15 07:07:28;;;;;;;4.45;1.50;;;;;;;22.66;44.42;100117.12;1705686;82;27578;-68
2022/07/15 07:09:54;;;;;;;4.03;1.40;;;;;;;22.84;44.40;100111.60;1715585;82;25484;-71
2022/07/15 07:12:20;;;;;;;4.08;1.47;;;;;;;22.96;44.04;100123.58;1686539;82;25466;-72
2022/07/15 07:14:48;;;;;;;2.37;1.20;;;;;;;23.11;43.63;100121.61;1731553;82;26007;-70
2022/07/15 07:17:14;;;;;;;5.47;1.12;;;;;;;23.24;43.24;100119.19;1731613;82;25484;-70
2022/07/15 07:19:40;;;;;;;3.20;1.10;;;;;;;23.37;43.51;100116.78;1731571;82;27459;-70
2022/07/15 07:22:07;;;;;;;8.88;1.40;;;;;;;23.49;43.20;100112.19;1731543;82;25662;-67
2022/07/15 07:24:33;;;;;;;6.10;1.55;;;;;;;23.67;43.24;100112.11;1732009;82;25581;-69
2022/07/15 07:26:59;;;;;;;3.85;2.50;;;;;;;23.82;42.74;100108.11;1732136;82;25423;-69
2022/07/15 07:29:25;;;;;;;4.00;1.20;;;;;;;23.91;42.12;100106.88;1732104;82;25382;-69
2022/07/15 07:31:52;;;;;;;1.60;0.82;;;;;;;23.98;42.18;100116.49;1732125;82;27519;-68
2022/07/15 07:34:19;;;;;;;7.90;1.25;;;;;;;24.07;41.72;100117.41;1731978;82;25226;-69
2022/07/15 07:36:46;;;;;;;3.02;1.12;;;;;;;24.14;41.31;100115.37;1732108;82;25492;-71
2022/07/15 07:39:13;;;;;;;4.17;1.52;;;;;;;24.17;41.00;100111.02;1732044;82;26210;-71
2022/07/15 07:41:40;;;;;;;5.65;1.72;;;;;;;24.13;40.40;100115.80;1732110;82;25413;-70
2022/07/15 07:44:06;;;;;;;2.60;1.45;;;;;;;24.12;41.09;100113.62;1732166;82;27427;-70
2022/07/15 07:46:33;;;;;;;4.78;1.40;;;;;;;24.23;41.15;100104.66;1721578;82;25782;-70
2022/07/15 07:48:59;;;;;;;3.50;1.20;;;;;;;24.30;40.67;100114.87;1732116;82;25480;-73
2022/07/15 07:51:25;;;;;;;4.53;1.25;;;;;;;24.12;40.84;100110.85;1732020;82;25523;-69
2022/07/15 07:53:51;;;;;;;7.97;3.33;;;;;;;24.16;40.75;100110.25;1732128;82;25499;-67
2022/07/15 07:56:17;;;;;;;4.62;1.20;;;;;;;24.21;40.80;100115.34;1731971;82;27470;-67
2022/07/15 07:58:43;;;;;;;2.87;1.62;;;;;;;24.14;40.05;100108.47;1709063;82;25551;-66
2022/07/15 08:01:10;;;;;;;5.58;1.42;;;;;;;24.15;40.45;100115.57;1703676;84;25461;-66
2022/07/15 08:03:36;;;;;;;4.58;1.22;;;;;;;24.12;39.95;100114.22;1703629;84;25580;-66
2022/07/15 08:06:02;;;;;;;3.30;1.60;;;;;;;24.16;40.78;100111.63;1704354;82;25559;-66
2022/07/15 08:08:28;;;;;;;4.05;1.47;;;;;;;24.37;40.05;100102.37;1718116;82;28049;-68
2022/07/15 08:10:57;;;;;;;6.17;1.40;;;;;;;24.18;39.49;100118.91;1711419;82;25570;-67
2022/07/15 08:13:28;;;;;;;5.78;1.70;;;;;;;23.88;39.48;100121.48;1703784;84;25479;-70
2022/07/15 08:15:56;;;;;;;4.28;1.20;;;;;;;23.57;39.86;100122.02;1703703;84;26558;-69
2022/07/15 08:18:22;;;;;;;5.92;1.47;;;;;;;23.27;40.26;100134.95;1703666;84;25538;-70
2022/07/15 08:20:48;;;;;;;4.72;1.52;;;;;;;23.03;40.69;100133.81;1693367;84;26937;-69
2022/07/15 08:23:20;;;;;;;3.72;1.17;;;;;;;22.89;40.78;100124.98;1700676;84;25399;-69
2022/07/15 08:25:42;;;;;;;6.28;1.62;;;;;;;23.04;41.42;100140.31;1697628;84;25419;-68
2022/07/15 08:28:09;;;;;;;3.65;1.52;;;;;;;23.21;40.49;100133.80;1698348;84;25460;-69
2022/07/15 08:30:35;;;;;;;2.98;1.17;;;;;;;23.41;40.46;100135.48;1698402;84;25403;-71
2022/07/15 08:33:02;;;;;;;3.35;1.30;;;;;;;23.69;40.76;100142.26;1698423;83;27505;-70
2022/07/15 08:35:29;;;;;;;2.20;1.60;;;;;;;23.97;39.51;100137.81;1698237;84;25792;-70
2022/07/15 08:37:55;;;;;;;3.52;1.02;;;;;;;23.94;39.51;100141.38;1698415;84;25470;-71
2022/07/15 08:40:23;;;;;;;3.05;0.95;;;;;;;24.02;38.69;100144.86;1698323;84;25453;-70
2022/07/15 08:42:50;;;;;;;2.33;1.05;;;;;;;23.99;39.58;100152.58;1698434;84;25525;-72
2022/07/15 08:45:17;;;;;;;2.22;0.93;;;;;;;24.14;39.55;100155.43;1698467;84;27467;-71
2022/07/15 08:47:48;;;;;;;1.37;0.78;;;;;;;23.88;36.73;100165.67;1698288;84;25682;-71
2022/07/15 08:50:17;;;;;;;1.27;0.53;;;;;;;23.38;36.44;100162.50;1698383;84;25373;-71
2022/07/15 08:52:46;;;;;;;2.33;0.90;;;;;;;23.46;36.91;100158.53;1698471;83;25469;-71
2022/07/15 08:55:15;;;;;;;;;;;;;;;23.82;36.50;100159.77;1700917;84;25454;-70
2022/07/15 08:57:47;;;;;;;3.42;0.65;;;;;;;23.93;35.57;100164.66;1698606;84;27559;-72
2022/07/15 09:00:14;;;;;;;3.00;0.70;;;;;;;24.15;35.05;100168.06;1698263;84;25557;-71
2022/07/15 09:02:40;;;;;;;0.98;0.60;;;;;;;24.36;35.87;100157.45;1698380;83;25569;-71
2022/07/15 09:05:27;;;;;;;1.30;1.17;;;;;;;24.77;33.15;100174.73;1698380;84;25538;-72
2022/07/15 09:08:01;;;;;;;2.47;0.70;;;;;;;24.73;33.97;100153.22;1698432;84;25668;-72
2022/07/15 09:10:59;;;;;;;1.60;0.90;;;;;;;24.90;34.47;100162.55;1698368;84;27528;-72
2022/07/15 09:13:33;;;;;;;3.70;1.20;;;;;;;24.76;34.07;100167.62;1698310;84;25814;-71
2022/07/15 09:16:13;;;;;;;2.22;1.22;;;;;;;24.63;35.37;100173.46;1698403;84;25459;-70
2022/07/15 09:18:39;;;;;;;5.35;1.10;;;;;;;24.97;36.30;100170.77;1696942;84;25721;-70
2022/07/15 09:21:19;;;;;;;3.25;1.30;;;;;;;25.35;36.23;100176.34;1698448;84;25476;-69
2022/07/15 09:23:47;;;;;;;1.42;0.75;;;;;;;25.58;35.16;100177.65;1687187;83;27469;-70
2022/07/15 09:26:29;;;;;;;3.47;0.88;;;;;;;25.58;34.33;100170.73;1679174;85;25513;-70
2022/07/15 09:28:57;;;;;;;1.70;0.70;;;;;;;25.48;34.06;100178.56;1679391;85;25493;-73
2022/07/15 09:34:19;;;;;;;1.37;0.70;;;;;;;25.32;34.36;100176.39;1679399;85;25567;-71
2022/07/15 09:36:54;;;;;;;4.35;0.80;;;;;;;25.43;33.90;100181.79;1679312;85;28151;-72
2022/07/15 09:39:24;;;;;;;3.20;1.07;;;;;;;25.51;33.52;100172.20;1703683;84;25490;-72
2022/07/15 09:41:52;;;;;;;2.17;0.75;;;;;;;25.51;33.96;100181.29;1703713;84;25546;-71
2022/07/15 09:44:22;;;;;;;1.62;0.57;;;;;;;25.86;32.96;100177.09;1703675;84;25564;-72
2022/07/15 09:46:52;;;;;;;2.30;0.70;;;;;;;25.98;32.15;100174.38;1703489;84;25496;-72
2022/07/15 09:49:32;;;;;;;3.30;0.80;;;;;;;25.91;31.00;100186.31;1703753;84;27550;-72
2022/07/15 09:52:02;;;;;;;1.40;0.78;;;;;;;25.35;31.18;100181.88;1703670;84;25494;-73
2022/07/15 09:54:41;;;;;;;7.00;1.25;;;;;;;24.94;31.43;100177.14;1704003;84;25475;-71
2022/07/15 09:57:15;;;;;;;2.55;0.68;;;;;;;25.00;32.15;100172.55;1703867;84;26032;-71
2022/07/15 09:59:43;;;;;;;2.92;0.80;;;;;;;25.16;32.08;100176.91;1703771;84;25471;-71
2022/07/15 10:02:10;;;;;;;1.32;0.68;;;;;;;24.94;31.11;100168.84;1703924;84;27543;-71
2022/07/15 10:04:38;;;;;;;5.53;1.42;;;;;;;24.49;32.07;100179.87;1703580;84;25501;-72
2022/07/15 10:07:05;;;;;;;2.00;0.70;;;;;;;24.27;32.21;100171.55;1703738;84;25490;-71
2022/07/15 10:09:35;;;;;;;3.95;1.10;;;;;;;24.18;32.45;100179.70;1703627;84;26105;-71
2022/07/15 10:12:12;;;;;;;2.08;1.02;;;;;;;24.07;32.91;100187.86;1703764;84;25523;-69
2022/07/15 10:15:11;;;;;;;4.30;0.80;;;;;;;23.89;33.00;100181.84;1702717;84;27490;-71
2022/07/15 10:18:00;;;;;;;1.90;0.70;;;;;;;23.80;32.80;100192.50;1703426;84;25599;-69
2022/07/15 10:20:59;;;;;;;1.72;0.80;;;;;;;23.73;33.16;100183.66;1650057;86;25681;-73
2022/07/15 10:24:09;;;;;;;3.05;1.12;;;;;;;23.83;34.08;100191.73;1640913;87;25476;-76
2022/07/15 10:26:52;;;;;;;3.50;0.90;;;;;;;24.32;33.42;100192.63;1594260;90;25721;-76
2022/07/15 10:29:19;;;;;;;1.65;0.68;;;;;;;24.85;32.70;100195.41;1630518;88;27467;-74
2022/07/15 10:31:47;;;;;;;1.87;0.60;;;;;;;25.15;33.24;100181.66;1613903;88;25448;-78
2022/07/15 10:34:17;;;;;;;2.33;0.95;;;;;;;25.46;32.14;100188.67;1637783;87;25730;-74
2022/07/15 10:36:54;;;;;;;2.50;1.20;;;;;;;25.64;31.95;100182.12;1639265;87;25609;-75
2022/07/15 10:39:42;;;;;;;2.95;0.80;;;;;;;25.69;31.35;100182.47;1639332;87;25457;-74
2022/07/15 10:42:08;;;;;;;3.02;0.80;;;;;;;25.75;30.90;100180.62;1631080;87;27696;-74
2022/07/15 10:44:39;;;;;;;3.00;0.80;;;;;;;25.48;30.49;100186.88;1617694;88;25771;-75
2022/07/15 10:47:18;;;;;;;1.72;0.60;;;;;;;25.23;31.01;100182.97;1616606;87;25701;-73
2022/07/15 10:49:47;;;;;;;5.08;0.70;;;;;;;25.05;31.44;100191.47;1617886;88;26085;-72
2022/07/15 10:52:18;;;;;;;4.30;0.93;;;;;;;24.94;30.75;100188.21;1617895;88;25607;-73
2022/07/15 10:54:59;;;;;;;2.33;0.70;;;;;;;25.08;31.78;100183.13;1641468;86;27507;-74
2022/07/15 10:57:49;;;;;;;2.12;0.68;;;;;;;25.46;31.22;100187.28;1665210;83;25660;-72
2022/07/15 11:00:32;;;;;;;5.30;0.60;;;;;;;26.10;31.12;100175.19;1695869;84;25491;-70
2022/07/15 11:03:09;;;;;;;2.87;1.15;;;;;;;26.58;30.15;100178.22;1696560;83;25558;-70
2022/07/15 11:05:57;;;;;;;6.70;1.07;;;;;;;26.42;29.80;100184.40;1696574;84;25457;-71
2022/07/15 11:08:39;;;;;;;1.75;0.70;;;;;;;26.05;28.89;100197.25;1696553;84;27552;-69
2022/07/15 11:11:19;;;;;;;5.25;0.88;;;;;;;25.47;29.11;100193.59;1696477;84;25410;-70
2022/07/15 11:13:49;;;;;;;4.58;0.68;;;;;;;25.21;29.35;100193.67;1672131;84;25532;-71
2022/07/15 11:16:19;;;;;;;3.52;0.75;;;;;;;24.92;29.83;100199.48;1683844;85;25517;-70
2022/07/15 11:18:52;;;;;;;4.72;0.70;;;;;;;24.94;30.89;100186.83;1705912;84;25487;-69
2022/07/15 11:21:20;;;;;;;2.58;0.75;;;;;;;25.16;30.69;100204.00;1705873;84;27522;-70
2022/07/15 11:23:49;;;;;;;3.45;0.80;;;;;;;25.28;30.75;100191.62;1678454;84;25540;-69
2022/07/15 11:26:15;;;;;;;2.10;0.70;;;;;;;25.35;30.52;100191.56;1698449;84;25470;-72
2022/07/15 11:28:55;;;;;;;4.37;0.90;;;;;;;25.45;30.36;100194.00;1698302;84;25493;-70
2022/07/15 11:31:23;;;;;;;2.80;0.90;;;;;;;25.47;31.31;100209.63;1698351;84;25497;-73
2022/07/15 11:33:55;;;;;;;2.85;0.68;;;;;;;25.73;30.66;100190.72;1698324;84;27487;-73
2022/07/15 11:36:22;;;;;;;3.72;0.88;;;;;;;26.02;30.73;100197.30;1698104;82;25548;-71
2022/07/15 11:38:49;;;;;;;2.50;1.20;;;;;;;26.09;30.59;100191.04;1698273;84;25457;-72